Latest Weather Observations for Noarlunga

IDS60801

Issued at 6:41 pm CDT Sunday 24 January 2021 (issued every 10 minutes, with the page automatically refreshed every 10 minutes)

About weather observations | Map of weather stations | Latest weather observations for SA | Other Formats
Station Details ID: 023885 Name: NOARLUNGA Lat: -35.16 Lon: 138.51 Height: 55.0 m
Data from the previous 72 hours. | See also: Recent months at Noarlunga
Date/Time
CDT
Temp
°C
App
Temp
°C
Dew
Point
°C
Rel
Hum
%
Delta-T
°C
Wind Press
QNH
hPa
Press
MSL
hPa
Rain since
9am
mm
Dir  Spd
km/h
Gust
km/h
Spd
kts
Gust
kts
24/06:30pm 34.9 31.5 9.3 21 14.7 WSW 17 28 9 15 - - 0.0
24/06:00pm 39.3 35.7 0.6 9 19.8 WSW 9 13 5 7 - - 0.0
24/05:30pm 38.4 34.9 1.4 10 19.1 SW 9 15 5 8 - - 0.0
24/05:00pm 38.4 35.4 4.0 12 18.5 WSW 9 15 5 8 - - 0.0
24/04:30pm 36.3 33.3 10.5 21 15.1 WNW 17 30 9 16 - - 0.0
24/04:00pm 41.7 36.2 0.8 8 21.3 NW 19 28 10 15 - - 0.0
24/03:30pm 40.8 35.3 1.7 9 20.6 NNW 20 30 11 16 - - 0.0
24/03:00pm 40.3 35.0 2.8 10 20.0 NW 20 33 11 18 - - 0.0
24/02:30pm 40.0 34.9 4.0 11 19.5 NNW 20 33 11 18 - - 0.0
24/02:00pm 40.8 34.8 3.2 10 20.2 NNW 24 35 13 19 - - 0.0
24/01:30pm 40.5 34.2 1.5 9 20.4 NNW 24 33 13 18 - - 0.0
24/01:00pm 40.4 33.1 -0.2 8 20.7 NNW 28 39 15 21 - - 0.0
24/12:30pm 40.9 33.4 -1.6 7 21.3 N 28 43 15 23 - - 0.0
24/12:19pm 41.4 33.9 -1.3 7 21.5 N 28 46 15 25 - - 0.0
24/12:00pm 40.2 32.2 -2.1 7 20.9 N 30 44 16 24 - - 0.0
24/11:30am 40.8 34.0 -1.7 7 21.2 N 24 39 13 21 - - 0.0
24/11:00am 38.6 32.6 -1.5 8 19.8 NNE 20 32 11 17 - - 0.0
24/10:30am 37.2 30.3 -2.5 8 19.1 NNE 24 39 13 21 - - 0.0
24/10:00am 36.3 29.2 -1.6 9 18.4 NNE 26 46 14 25 - - 0.0
24/09:30am 36.2 29.4 -1.7 9 18.4 NNE 24 41 13 22 - - 0.0
24/09:00am 36.2 29.2 -3.3 8 18.7 NNE 24 43 13 23 - - 0.0
24/08:30am 35.5 30.4 -2.2 9 18.1 NNE 15 30 8 16 - - 0.0
24/08:00am 30.8 29.9 6.0 21 13.2 CALM 0 2 0 1 - - 0.0
24/07:30am 31.7 29.0 2.8 16 14.7 ENE 6 13 3 7 - - 0.0
24/07:00am 30.5 26.5 2.7 17 14.0 ENE 13 17 7 9 - - 0.0
24/06:30am 30.0 26.6 3.9 19 13.4 ENE 11 17 6 9 - - 0.0
24/06:00am 30.6 26.5 4.4 19 13.6 ENE 15 20 8 11 - - 0.0
24/05:30am 31.1 27.1 4.8 19 13.8 ENE 15 24 8 13 - - 0.0
24/05:00am 30.9 26.2 6.0 21 13.3 ENE 20 28 11 15 - - 0.0
24/04:30am 30.9 25.4 6.0 21 13.3 ENE 24 35 13 19 - - 0.0
24/04:00am 30.5 26.0 7.0 23 12.7 ENE 20 32 11 17 - - 0.0
24/03:30am 30.4 24.8 7.0 23 12.6 ENE 26 39 14 21 - - 0.0
24/03:00am 30.2 24.7 7.4 24 12.4 E 26 43 14 23 - - 0.0
24/02:30am 30.2 24.7 7.4 24 12.4 E 26 41 14 22 - - 0.0
24/02:00am 30.1 24.9 7.3 24 12.4 E 24 37 13 20 - - 0.0
24/01:30am 30.2 25.0 7.4 24 12.4 E 24 35 13 19 - - 0.0
24/01:00am 30.2 25.0 7.4 24 12.4 E 24 37 13 20 - - 0.0
24/12:30am 30.2 24.4 8.0 25 12.2 E 28 44 15 24 - - 0.0
24/12:00am 30.0 24.8 7.2 24 12.3 E 24 37 13 20 - - 0.0
 
Date/Time
CDT
Temp
°C
App
Temp
°C
Dew
Point
°C
Rel
Hum
%
Delta-T
°C
Wind Press
QNH
hPa
Press
MSL
hPa
Rain since
9am
mm
Dir  Spd
km/h
Gust
km/h
Spd
kts
Gust
kts
23/11:30pm 29.3 23.5 7.8 26 11.7 E 28 43 15 23 - - 0.0
23/11:00pm 29.0 23.5 7.6 26 11.6 ESE 26 37 14 20 - - 0.0
23/10:30pm 29.2 23.7 7.7 26 11.7 ESE 26 39 14 21 - - 0.0
23/10:00pm 29.5 24.3 7.4 25 12.0 ESE 24 37 13 20 - - 0.0
23/09:30pm 29.9 26.2 7.8 25 12.1 ESE 17 30 9 16 - - 0.0
23/09:00pm 30.3 27.3 7.5 24 12.4 ESE 13 20 7 11 - - 0.0
23/08:30pm 31.6 27.9 8.0 23 13.0 ESE 17 26 9 14 - - 0.0
23/08:00pm 32.9 28.4 7.0 20 14.2 ESE 20 26 11 14 - - 0.0
23/07:30pm 34.5 30.0 5.9 17 15.5 SE 19 30 10 16 - - 0.0
23/07:00pm 35.9 32.2 6.2 16 16.3 SE 15 26 8 14 - - 0.0
23/06:30pm 37.3 33.9 1.9 11 18.3 SW 9 15 5 8 - - 0.0
23/06:00pm 37.4 33.4 0.7 10 18.6 SW 11 15 6 8 - - 0.0
23/05:30pm 37.5 33.7 -0.7 9 19.0 WSW 9 15 5 8 - - 0.0
23/05:00pm 36.7 33.2 -1.3 9 18.6 SW 7 15 4 8 - - 0.0
23/04:30pm 36.0 32.4 0.9 11 17.7 WSW 9 13 5 7 - - 0.0
23/04:00pm 37.3 33.1 -0.9 9 18.9 W 11 19 6 10 - - 0.0
23/03:30pm 37.4 34.0 -0.8 9 18.9 W 7 13 4 7 - - 0.0
23/03:00pm 36.4 32.9 -1.5 9 18.5 W 7 11 4 6 - - 0.0
23/02:30pm 35.6 32.6 1.8 12 17.3 W 7 17 4 9 - - 0.0
23/02:00pm 34.0 31.1 2.8 14 16.1 WSW 7 11 4 6 - - 0.0
23/01:30pm 32.6 29.9 3.5 16 15.0 W 7 13 4 7 - - 0.0
23/01:00pm 32.3 30.0 5.7 19 14.2 WSW 7 11 4 6 - - 0.0
23/12:30pm 31.5 28.9 4.3 18 14.1 W 7 11 4 6 - - 0.0
23/12:00pm 31.1 27.9 3.2 17 14.2 W 9 13 5 7 - - 0.0
23/11:30am 31.3 28.1 0.6 14 15.0 WNW 7 11 4 6 - - 0.0
23/11:00am 30.1 27.2 2.4 17 13.8 W 7 11 4 6 - - 0.0
23/10:30am 29.7 26.7 2.1 17 13.7 W 7 11 4 6 - - 0.0
23/10:00am 29.6 26.8 2.0 17 13.6 W 6 7 3 4 - - 0.0
23/09:30am 28.4 26.4 0.2 16 13.4 CALM 0 0 0 0 - - 0.0
23/09:00am 26.8 24.8 -0.3 17 12.6 CALM 0 0 0 0 - - 0.0
23/08:30am 25.9 22.7 -3.6 14 12.8 E 4 4 2 2 - - 0.0
23/08:00am 24.0 21.5 -1.0 19 11.2 E 2 4 1 2 - - 0.0
23/07:30am 21.9 18.9 -2.0 20 10.3 ENE 4 6 2 3 - - 0.0
23/07:00am 19.8 16.7 -2.5 22 9.4 ENE 4 6 2 3 - - 0.0
23/06:30am 18.8 15.7 -2.7 23 8.9 E 4 6 2 3 - - 0.0
23/06:00am 19.4 15.7 -4.8 19 9.7 NE 6 7 3 4 - - 0.0
23/05:30am 20.6 16.9 -4.5 18 10.2 ENE 6 9 3 5 - - 0.0
23/05:00am 20.3 16.2 -3.4 20 9.8 E 9 13 5 7 - - 0.0
23/04:30am 20.0 16.5 -1.7 23 9.3 ENE 7 13 4 7 - - 0.0
23/04:00am 20.1 16.6 -1.1 24 9.2 E 7 11 4 6 - - 0.0
23/03:30am 20.6 16.4 -0.7 24 9.3 ENE 11 19 6 10 - - 0.0
23/03:00am 20.8 17.3 -1.1 23 9.5 ENE 7 17 4 9 - - 0.0
23/02:30am 21.1 17.3 -0.8 23 9.6 ENE 9 15 5 8 - - 0.0
23/02:00am 21.2 16.6 -0.7 23 9.7 E 13 20 7 11 - - 0.0
23/01:30am 21.4 16.1 -0.6 23 9.7 E 17 24 9 13 - - 0.0
23/01:00am 21.8 16.0 -1.5 21 10.2 E 19 26 10 14 - - 0.0
23/12:30am 21.6 15.8 -0.4 23 9.8 E 20 28 11 15 - - 0.0
23/12:00am 21.5 16.4 0.7 25 9.5 E 17 24 9 13 - - 0.0
 
Date/Time
CDT
Temp
°C
App
Temp
°C
Dew
Point
°C
Rel
Hum
%
Delta-T
°C
Wind Press
QNH
hPa
Press
MSL
hPa
Rain since
9am
mm
Dir  Spd
km/h
Gust
km/h
Spd
kts
Gust
kts
22/11:30pm 21.7 16.7 1.4 26 9.4 E 17 28 9 15 - - 0.0
22/11:00pm 21.4 16.7 3.1 30 8.7 E 17 22 9 12 - - 0.0
22/10:30pm 21.3 17.5 4.0 32 8.4 E 13 20 7 11 - - 0.0
22/10:00pm 21.7 17.2 4.3 32 8.5 ESE 17 24 9 13 - - 0.0
22/09:30pm 22.5 17.8 3.1 28 9.3 ESE 17 24 9 13 - - 0.0
22/09:00pm 23.8 18.4 2.6 25 10.2 SE 20 28 11 15 - - 0.0
22/08:30pm 25.3 20.9 2.7 23 11.0 SE 15 20 8 11 - - 0.0
22/08:00pm 26.8 22.3 4.0 23 11.5 SE 17 22 9 12 - - 0.0
22/07:30pm 28.3 23.5 2.5 19 12.7 SE 17 20 9 11 - - 0.0
22/07:00pm 29.6 25.6 0.2 15 14.1 S 11 19 6 10 - - 0.0
22/06:30pm 29.9 26.7 5.2 21 12.9 SSE 11 19 6 10 - - 0.0
22/06:00pm 29.9 27.5 9.9 29 11.3 SSE 13 19 7 10 - - 0.0
22/05:30pm 30.4 27.2 11.4 31 11.0 SSE 19 26 10 14 - - 0.0
22/05:00pm 29.0 26.3 11.6 34 10.1 SW 17 24 9 13 - - 0.0
22/04:30pm 28.8 25.9 9.5 30 10.8 SW 15 24 8 13 - - 0.0
22/04:00pm 29.1 26.1 9.3 29 11.0 WSW 15 24 8 13 - - 0.0
22/03:30pm 29.3 26.2 5.4 22 12.5 W 11 17 6 9 - - 0.0
22/03:00pm 28.7 25.5 4.9 22 12.3 SW 11 19 6 10 - - 0.0
22/02:30pm 28.7 25.6 5.5 23 12.1 WSW 11 17 6 9 - - 0.0
22/02:00pm 27.7 24.8 6.5 26 11.2 WSW 11 19 6 10 - - 0.0
22/01:30pm 27.1 24.2 6.5 27 10.8 WSW 11 19 6 10 - - 0.0
22/01:00pm 26.3 23.3 5.8 27 10.6 WSW 11 19 6 10 - - 0.0
22/12:30pm 26.3 23.7 7.8 31 9.9 WNW 11 17 6 9 - - 0.0
22/12:00pm 26.0 23.1 6.6 29 10.2 W 11 15 6 8 - - 0.0
22/11:30am 26.0 23.7 5.6 27 10.5 W 7 13 4 7 - - 0.0
22/11:00am 25.8 23.3 4.9 26 10.6 WNW 7 13 4 7 - - 0.0
22/10:30am 25.2 22.7 3.8 25 10.6 WNW 6 9 3 5 - - 0.0
22/10:00am 24.5 22.2 4.8 28 9.9 W 6 9 3 5 - - 0.0
22/09:30am 24.0 22.0 6.3 32 9.1 WNW 6 9 3 5 - - 0.0
22/09:00am 23.5 21.9 2.4 25 10.1 CALM 0 0 0 0 - - 0.0
22/08:30am 22.9 21.3 2.4 26 9.7 CALM 0 0 0 0 - - 0.0
22/08:00am 21.8 19.9 3.0 29 9.0 ENE 2 4 1 2 - - 0.0
22/07:30am 19.0 17.2 1.5 31 7.9 CALM 0 4 0 2 - - 0.0
22/07:00am 17.4 15.3 1.4 34 7.1 ENE 2 4 1 2 - - 0.0
22/06:30am 17.1 14.1 1.1 34 7.1 ENE 6 9 3 5 - - 0.0
22/06:00am 16.0 13.9 1.7 38 6.3 E 2 6 1 3 - - 0.0
22/05:30am 16.3 14.2 2.0 38 6.4 E 2 4 1 2 - - 0.0
22/05:00am 16.1 13.3 2.2 39 6.2 ESE 6 6 3 3 - - 0.0
22/04:30am 17.0 14.2 1.8 36 6.8 WNW 6 9 3 5 - - 0.0
22/04:00am 17.8 16.2 2.2 35 7.1 CALM 0 0 0 0 - - 0.0
22/03:30am 18.7 16.7 2.1 33 7.6 WNW 2 4 1 2 - - 0.0
22/03:00am 19.5 17.7 1.5 30 8.2 CALM 0 4 0 2 - - 0.0
22/02:30am 20.2 16.7 1.1 28 8.7 ENE 9 15 5 8 - - 0.0
22/02:00am 19.9 16.5 1.8 30 8.3 E 9 15 5 8 - - 0.0
22/01:30am 20.1 16.0 2.0 30 8.3 E 13 19 7 10 - - 0.0
22/01:00am 19.9 15.7 1.4 29 8.4 E 13 17 7 9 - - 0.0
22/12:30am 20.3 15.4 2.2 30 8.4 ESE 17 24 9 13 - - 0.0
22/12:00am 20.6 17.8 2.0 29 8.6 ESE 6 11 3 6 - - 0.0
 
Date/Time
CDT
Temp
°C
App
Temp
°C
Dew
Point
°C
Rel
Hum
%
Delta-T
°C
Wind Press
QNH
hPa
Press
MSL
hPa
Rain since
9am
mm
Dir  Spd
km/h
Gust
km/h
Spd
kts
Gust
kts
21/11:30pm 21.3 18.4 1.6 27 9.1 SE 6 11 3 6 - - 0.0
21/11:00pm 21.9 18.5 1.6 26 9.4 SE 9 17 5 9 - - 0.0
21/10:30pm 22.3 18.5 1.9 26 9.6 ESE 11 15 6 8 - - 0.0
21/10:00pm 22.7 20.2 3.8 29 9.2 S 6 9 3 5 - - 0.0
21/09:30pm 23.4 20.4 3.9 28 9.6 SE 9 17 5 9 - - 0.0
21/09:00pm 24.0 21.9 3.9 27 9.9 ESE 4 11 2 6 - - 0.0
21/08:30pm 25.5 21.5 2.9 23 11.0 SE 13 22 7 12 - - 0.0
21/08:00pm 27.4 23.0 2.5 20 12.2 SE 15 22 8 12 - - 0.0
21/07:30pm 28.4 23.0 2.6 19 12.8 SE 20 28 11 15 - - 0.0
21/07:00pm 29.8 28.6 10.4 30 11.0 SW 7 13 4 7 - - 0.0

Other formats

Comma delimited format used in spreadsheet applications
http://www.bom.gov.au/fwo/IDS60801/IDS60801.94808.axf

JavaScript Object Notation format (JSON) in row-major order
http://www.bom.gov.au/fwo/IDS60801/IDS60801.94808.json

Data quality

Most of these data are generated automatically and are frequently updated. Quality checks on data are not normally performed. It is possible for incorrect values to appear. Refer to information at About Latest Weather Observations and please check the disclaimer before using these data.